createdAt,value
2023-01-04T00:46:52.946Z,21.20
2023-01-04T00:49:19.884Z,22.60
2023-01-04T00:51:46.634Z,22.60
2023-01-04T00:54:15.349Z,22.60
2023-01-04T00:56:42.228Z,22.60
2023-01-04T00:59:10.119Z,22.60
2023-01-04T01:01:36.968Z,22.60
2023-01-04T01:04:05.842Z,22.60
2023-01-04T01:06:34.006Z,22.60
2023-01-04T01:09:01.259Z,22.60
2023-01-04T01:11:29.230Z,22.60
2023-01-04T01:13:56.749Z,22.60
2023-01-04T09:01:24.226Z,22.60
2023-01-04T09:03:50.984Z,18.70
2023-01-04T09:06:17.760Z,18.40
2023-01-04T09:08:44.904Z,18.20
2023-01-04T11:19:19.168Z,17.90
2023-01-04T11:47:54.905Z,19.50
2023-01-04T11:50:38.535Z,20.70
2023-01-04T11:53:30.194Z,20.70
2023-01-04T11:56:09.224Z,20.70
2023-01-04T11:58:35.991Z,20.80
2023-01-04T12:01:03.020Z,20.80
2023-01-04T12:03:35.988Z,20.80
2023-01-04T12:06:02.703Z,20.90
2023-01-04T12:08:37.085Z,20.90
2023-01-04T12:11:06.049Z,20.90
2023-01-04T12:13:37.840Z,20.90
2023-01-04T12:16:10.763Z,20.90
2023-01-04T12:18:43.298Z,21.00
2023-01-04T12:21:26.222Z,21.00
2023-01-04T12:23:55.021Z,21.00
2023-01-04T12:26:23.504Z,21.00
2023-01-04T12:29:12.588Z,21.00
2023-01-04T12:31:39.276Z,21.00
2023-01-04T12:34:32.079Z,21.00
2023-01-04T12:37:05.272Z,21.00
2023-01-04T12:39:41.904Z,21.00
2023-01-04T12:42:19.565Z,21.00
2023-01-04T12:44:51.877Z,21.10
2023-01-04T12:47:37.611Z,21.10
2023-01-04T12:50:27.648Z,21.10
2023-01-04T12:53:30.593Z,21.10
2023-01-04T12:55:54.701Z,21.10
2023-01-04T13:01:28.382Z,21.10
2023-01-04T13:04:05.547Z,21.10
2023-01-04T13:06:42.717Z,21.10
2023-01-04T13:09:23.799Z,21.10
2023-01-04T13:12:01.812Z,21.10
2023-01-04T13:14:37.774Z,21.10
2023-01-04T13:17:14.863Z,21.10
2023-01-04T13:19:43.873Z,21.10
2023-01-04T13:22:46.328Z,21.10
2023-01-04T13:25:14.650Z,21.10
2023-01-04T13:27:55.980Z,21.10
2023-01-04T13:30:36.517Z,21.10
2023-01-04T13:33:26.725Z,21.00
2023-01-04T13:36:11.638Z,21.00
2023-01-04T13:38:40.656Z,21.10
2023-01-04T13:41:20.776Z,21.00
2023-01-04T13:44:14.121Z,21.00
2023-01-04T13:46:43.608Z,21.00
2023-01-04T13:49:14.765Z,21.00
2023-01-04T13:51:41.468Z,21.00
2023-01-04T13:54:20.327Z,21.00
2023-01-04T13:56:53.349Z,21.00
2023-01-04T13:59:22.154Z,21.00
2023-01-04T14:01:49.593Z,21.00
2023-01-04T14:04:26.315Z,21.00
2023-01-04T14:06:57.650Z,21.00
2023-01-04T14:09:35.609Z,21.00
2023-01-04T14:12:13.716Z,21.00
2023-01-04T14:14:46.668Z,21.00
2023-01-04T14:17:13.299Z,21.00
2023-01-04T14:19:44.792Z,21.00
2023-01-04T14:22:32.666Z,21.00
2023-01-04T14:25:10.369Z,21.00
2023-01-04T14:27:45.100Z,21.00
2023-01-04T14:30:17.991Z,21.00
2023-01-04T14:33:26.194Z,21.00
2023-01-04T14:36:09.064Z,20.90
2023-01-04T14:39:08.075Z,20.90
2023-01-04T14:41:48.491Z,20.90
2023-01-04T14:44:24.333Z,20.90
2023-01-04T14:46:53.388Z,20.90
2023-01-04T14:49:21.901Z,20.90
2023-01-04T14:51:56.436Z,20.90
2023-01-04T14:54:25.895Z,20.90
2023-01-04T14:56:57.397Z,20.90
2023-01-04T14:59:24.938Z,20.80
2023-01-04T15:01:56.616Z,20.90
2023-01-04T15:04:23.971Z,20.80
2023-01-04T15:06:56.658Z,20.80
2023-01-04T15:09:23.396Z,20.80
2023-01-04T15:11:50.541Z,20.80
2023-01-04T15:14:17.402Z,20.80
2023-01-04T15:16:44.262Z,20.80
2023-01-04T15:19:11.359Z,20.80
2023-01-04T15:21:41.336Z,20.80
2023-01-04T15:24:09.748Z,20.80
2023-01-04T15:26:36.585Z,20.70
2023-01-04T15:29:06.812Z,20.70
2023-01-04T15:31:39.037Z,20.70
2023-01-04T15:34:07.444Z,20.70
2023-01-04T15:36:38.411Z,20.70
2023-01-04T15:39:05.465Z,20.70
2023-01-04T15:41:50.809Z,20.70
2023-01-04T15:44:17.582Z,20.70
